Time,TemperatureF,DewpointF,PressureIn,WindDirection,WindDirectionDegrees,WindSpeedMPH,WindSpeedGustMPH,Humidity,HourlyPrecipIn,Conditions,Clouds,dailyrainin,SoftwareType,DateUTC
2013-09-09 00:00:00,46.2,45.1,30.17,SSE,167,0.0,0.0,96,0.00,,OVC,0.00,VWS V14.01,2013-09-09 04:00:00,
2013-09-09 00:01:00,46.3,45.2,30.17,SSE,167,0.0,0.0,96,0.00,,CLR,0.09,VWS V14.01,2013-09-09 04:01:00,
2013-09-09 00:02:00,46.3,45.2,30.17,SSE,167,0.0,0.0,96,0.00,,CLR,0.09,VWS V14.01,2013-09-09 04:02:00,
2013-09-09 00:03:00,46.2,45.1,30.17,SSE,167,0.0,0.0,96,0.00,,CLR,0.00,VWS V14.01,2013-09-09 04:03:00,
2013-09-09 00:08:00,46.0,44.7,30.18,SW,236,0.0,0.0,95,0.00,,CLR,0.00,VWS V14.01,2013-09-09 04:08:00,
2013-09-09 00:13:00,45.7,44.3,30.18,West,269,0.0,0.0,95,0.00,,CLR,0.00,VWS V14.01,2013-09-09 04:13:00,
2013-09-09 00:18:00,46.0,44.9,30.18,West,264,0.0,0.0,96,0.00,,CLR,0.00,VWS V14.01,2013-09-09 04:18:00,
2013-09-09 00:23:00,46.3,45.2,30.18,West,264,0.0,0.0,96,0.00,,CLR,0.00,VWS V14.01,2013-09-09 04:23:00,
2013-09-09 00:28:00,46.1,45.0,30.18,West,261,0.0,0.0,96,0.00,,CLR,0.00,VWS V14.01,2013-09-09 04:28:00,
2013-09-09 00:30:00,46.0,44.9,30.18,West,261,0.0,0.0,96,0.00,,OVC,0.00,VWS V14.01,2013-09-09 04:30:00,
2013-09-09 00:33:00,46.0,44.9,30.18,West,261,0.0,0.0,96,0.00,,CLR,0.00,VWS V14.01,2013-09-09 04:33:00,
2013-09-09 00:38:00,45.9,44.8,30.18,West,260,0.0,0.0,96,0.00,,CLR,0.00,VWS V14.01,2013-09-09 04:38:00,
2013-09-09 00:44:00,45.4,44.0,30.18,West,261,0.0,0.0,95,0.00,,CLR,0.00,VWS V14.01,2013-09-09 04:44:00,
2013-09-09 00:49:00,45.3,44.2,30.18,West,262,0.0,0.0,96,0.00,,CLR,0.00,VWS V14.01,2013-09-09 04:49:00,
2013-09-09 00:54:00,45.2,44.1,30.18,West,259,0.0,0.0,96,0.00,,CLR,0.00,VWS V14.01,2013-09-09 04:54:00,
2013-09-09 00:59:00,45.1,44.0,30.18,West,261,0.0,0.0,96,0.00,,CLR,0.00,VWS V14.01,2013-09-09 04:59:00,
2013-09-09 01:00:00,44.9,43.8,30.18,West,262,0.0,0.0,96,0.00,,OVC,0.00,VWS V14.01,2013-09-09 05:00:00,
2013-09-09 01:04:00,44.8,43.7,30.18,West,262,0.0,0.0,96,0.00,,CLR,0.00,VWS V14.01,2013-09-09 05:04:00,
2013-09-09 01:09:00,44.7,43.6,30.18,West,262,0.0,0.0,96,0.00,,CLR,0.00,VWS V14.01,2013-09-09 05:09:00,
2013-09-09 01:14:00,44.5,43.4,30.19,West,262,0.0,0.0,96,0.00,,CLR,0.00,VWS V14.01,2013-09-09 05:14:00,
2013-09-09 01:19:00,44.5,43.4,30.19,West,259,0.0,0.0,96,0.00,,CLR,0.00,VWS V14.01,2013-09-09 05:19:00,
2013-09-09 01:24:00,44.6,43.5,30.19,West,262,0.0,0.0,96,0.00,,CLR,0.00,VWS V14.01,2013-09-09 05:24:00,
2013-09-09 01:29:00,44.5,43.4,30.19,West,260,0.0,0.0,96,0.00,,CLR,0.00,VWS V14.01,2013-09-09 05:29:00,
2013-09-09 01:30:00,44.6,43.5,30.19,WSW,251,0.0,0.0,96,0.00,,OVC,0.00,VWS V14.01,2013-09-09 05:30:00,
2013-09-09 01:35:00,44.5,43.4,30.19,WSW,250,0.0,0.0,96,0.00,,CLR,0.00,VWS V14.01,2013-09-09 05:35:00,
2013-09-09 01:40:00,44.6,43.8,30.19,WSW,252,0.0,0.0,97,0.00,,CLR,0.00,VWS V14.01,2013-09-09 05:40:00,
2013-09-09 01:45:00,44.9,44.1,30.19,WSW,257,0.0,0.0,97,0.00,,CLR,0.00,VWS V14.01,2013-09-09 05:45:00,
2013-09-09 01:50:00,45.4,44.6,30.19,West,266,0.0,0.0,97,0.00,,CLR,0.00,VWS V14.01,2013-09-09 05:50:00,
2013-09-09 01:55:00,45.4,44.6,30.19,West,259,0.0,0.0,97,0.00,,CLR,0.00,VWS V14.01,2013-09-09 05:55:00,
2013-09-09 02:00:00,45.4,44.6,30.19,West,259,0.0,0.0,97,0.00,,CLR,0.00,VWS V14.01,2013-09-09 06:00:00,
2013-09-09 02:05:00,45.6,44.8,30.19,West,259,0.0,0.0,97,0.00,,CLR,0.00,VWS V14.01,2013-09-09 06:05:00,
2013-09-09 02:10:00,45.7,44.9,30.19,West,259,0.0,0.0,97,0.00,,CLR,0.00,VWS V14.01,2013-09-09 06:10:00,
2013-09-09 02:15:00,45.0,43.9,30.20,West,259,0.0,0.0,96,0.00,,CLR,0.00,VWS V14.01,2013-09-09 06:15:00,
2013-09-09 02:20:00,44.6,43.5,30.20,West,259,0.0,0.0,96,0.00,,CLR,0.00,VWS V14.01,2013-09-09 06:20:00,
2013-09-09 02:26:00,44.3,43.2,30.20,West,259,0.0,0.0,96,0.00,,CLR,0.00,VWS V14.01,2013-09-09 06:26:00,
2013-09-09 02:30:00,44.0,42.9,30.20,West,259,0.0,0.0,96,0.00,,OVC,0.00,VWS V14.01,2013-09-09 06:30:00,
2013-09-09 02:31:00,44.1,43.0,30.20,West,259,0.0,0.0,96,0.00,,CLR,0.00,VWS V14.01,2013-09-09 06:31:00,
2013-09-09 02:36:00,43.9,42.8,30.20,West,259,0.0,0.0,96,0.00,,CLR,0.00,VWS V14.01,2013-09-09 06:36:00,
2013-09-09 02:41:00,43.7,42.6,30.20,West,259,0.0,0.0,96,0.00,,CLR,0.00,VWS V14.01,2013-09-09 06:41:00,
2013-09-09 02:46:00,43.5,42.4,30.20,West,259,0.0,0.0,96,0.00,,CLR,0.00,VWS V14.01,2013-09-09 06:46:00,
2013-09-09 02:51:00,43.6,42.8,30.20,West,260,0.0,0.0,97,0.00,,CLR,0.00,VWS V14.01,2013-09-09 06:51:00,
2013-09-09 02:56:00,43.7,42.9,30.20,West,259,0.0,0.0,97,0.00,,CLR,0.00,VWS V14.01,2013-09-09 06:56:00,
2013-09-09 03:00:00,43.7,42.9,30.20,West,259,0.0,0.0,97,0.00,,OVC,0.00,VWS V14.01,2013-09-09 07:00:00,
2013-09-09 03:01:00,43.8,43.0,30.20,West,259,0.0,0.0,97,0.00,,CLR,0.00,VWS V14.01,2013-09-09 07:01:00,
2013-09-09 03:06:00,43.7,42.9,30.20,West,259,0.0,0.0,97,0.00,,CLR,0.00,VWS V14.01,2013-09-09 07:06:00,
2013-09-09 03:11:00,43.6,42.8,30.20,West,259,0.0,0.0,97,0.00,,CLR,0.00,VWS V14.01,2013-09-09 07:11:00,
2013-09-09 03:17:00,43.4,42.3,30.20,West,259,0.0,0.0,96,0.00,,CLR,0.00,VWS V14.01,2013-09-09 07:17:00,
2013-09-09 03:22:00,43.4,42.6,30.20,West,259,0.0,0.0,97,0.00,,CLR,0.00,VWS V14.01,2013-09-09 07:22:00,
2013-09-09 03:27:00,43.2,42.4,30.20,West,259,0.0,0.0,97,0.00,,CLR,0.00,VWS V14.01,2013-09-09 07:27:00,
2013-09-09 03:30:00,43.2,42.4,30.20,West,259,0.0,0.0,97,0.00,,OVC,0.00,VWS V14.01,2013-09-09 07:30:00,
2013-09-09 03:32:00,43.2,42.4,30.20,West,259,0.0,0.0,97,0.00,,CLR,0.00,VWS V14.01,2013-09-09 07:32:00,
2013-09-09 03:37:00,43.3,42.5,30.20,West,259,0.0,0.0,97,0.00,,CLR,0.00,VWS V14.01,2013-09-09 07:37:00,
2013-09-09 03:42:00,43.2,42.4,30.21,West,259,0.0,0.0,97,0.00,,CLR,0.00,VWS V14.01,2013-09-09 07:42:00,
2013-09-09 03:47:00,43.2,42.4,30.21,West,259,0.0,0.0,97,0.00,,CLR,0.00,VWS V14.01,2013-09-09 07:47:00,
2013-09-09 03:52:00,43.2,42.4,30.21,West,259,0.0,0.0,97,0.00,,CLR,0.00,VWS V14.01,2013-09-09 07:52:00,
2013-09-09 03:57:00,43.3,42.5,30.21,West,259,0.0,0.0,97,0.00,,CLR,0.00,VWS V14.01,2013-09-09 07:57:00,
2013-09-09 04:00:00,43.2,42.4,30.21,West,259,0.0,0.0,97,0.00,,OVC,0.00,VWS V14.01,2013-09-09 08:00:00,
2013-09-09 04:02:00,43.2,42.4,30.21,West,259,0.0,0.0,97,0.00,,CLR,0.00,VWS V14.01,2013-09-09 08:02:00,
2013-09-09 04:07:00,43.1,42.3,30.21,West,259,0.0,0.0,97,0.00,,CLR,0.00,VWS V14.01,2013-09-09 08:07:00,
2013-09-09 04:13:00,43.1,42.3,30.21,West,259,0.0,0.0,97,0.00,,CLR,0.00,VWS V14.01,2013-09-09 08:13:00,
2013-09-09 04:18:00,42.9,42.1,30.22,West,259,0.0,0.0,97,0.00,,CLR,0.00,VWS V14.01,2013-09-09 08:18:00,
2013-09-09 04:23:00,42.7,41.9,30.22,West,259,0.0,0.0,97,0.00,,CLR,0.00,VWS V14.01,2013-09-09 08:23:00,
2013-09-09 04:28:00,42.4,41.6,30.22,West,259,0.0,0.0,97,0.00,,CLR,0.00,VWS V14.01,2013-09-09 08:28:00,
2013-09-09 04:30:00,42.5,41.7,30.22,West,259,0.0,0.0,97,0.00,,OVC,0.00,VWS V14.01,2013-09-09 08:30:00,
2013-09-09 04:33:00,42.5,41.7,30.22,West,259,0.0,0.0,97,0.00,,CLR,0.00,VWS V14.01,2013-09-09 08:33:00,
2013-09-09 04:38:00,43.1,42.3,30.22,West,259,0.0,0.0,97,0.00,,CLR,0.00,VWS V14.01,2013-09-09 08:38:00,
2013-09-09 04:43:00,43.2,42.4,30.22,West,259,0.0,0.0,97,0.00,,CLR,0.00,VWS V14.01,2013-09-09 08:43:00,
2013-09-09 04:48:00,42.9,42.1,30.22,West,259,0.0,0.0,97,0.00,,CLR,0.00,VWS V14.01,2013-09-09 08:48:00,
2013-09-09 04:53:00,42.6,41.8,30.22,West,259,0.0,0.0,97,0.00,,CLR,0.00,VWS V14.01,2013-09-09 08:53:00,
2013-09-09 04:58:00,42.5,41.7,30.22,West,259,0.0,0.0,97,0.00,,CLR,0.00,VWS V14.01,2013-09-09 08:58:00,
2013-09-09 05:00:00,42.3,41.5,30.22,West,259,0.0,0.0,97,0.00,,OVC,0.00,VWS V14.01,2013-09-09 09:00:00,
2013-09-09 05:04:00,42.3,41.5,30.22,West,259,0.0,0.0,97,0.00,,CLR,0.00,VWS V14.01,2013-09-09 09:04:00,
2013-09-09 05:09:00,42.3,41.5,30.22,West,259,0.0,0.0,97,0.00,,CLR,0.00,VWS V14.01,2013-09-09 09:09:00,
2013-09-09 05:14:00,42.4,41.6,30.22,West,259,0.0,0.0,97,0.00,,CLR,0.00,VWS V14.01,2013-09-09 09:14:00,
2013-09-09 05:19:00,42.4,41.6,30.22,West,259,0.0,0.0,97,0.00,,CLR,0.00,VWS V14.01,2013-09-09 09:19:00,
2013-09-09 05:24:00,42.3,41.5,30.22,West,259,0.0,0.0,97,0.00,,CLR,0.00,VWS V14.01,2013-09-09 09:24:00,
2013-09-09 05:29:00,42.3,41.5,30.22,West,259,0.0,0.0,97,0.00,,CLR,0.00,VWS V14.01,2013-09-09 09:29:00,
2013-09-09 05:30:00,42.4,41.6,30.22,West,259,0.0,0.0,97,0.00,,OVC,0.00,VWS V14.01,2013-09-09 09:30:00,
2013-09-09 05:34:00,42.4,41.6,30.22,West,259,0.0,0.0,97,0.00,,CLR,0.00,VWS V14.01,2013-09-09 09:34:00,
2013-09-09 05:39:00,42.5,41.7,30.22,West,259,0.0,0.0,97,0.00,,CLR,0.00,VWS V14.01,2013-09-09 09:39:00,
2013-09-09 05:44:00,42.6,41.8,30.21,West,259,0.0,0.0,97,0.00,,CLR,0.00,VWS V14.01,2013-09-09 09:44:00,
2013-09-09 05:49:00,42.9,42.4,30.21,West,259,0.0,0.0,98,0.00,,CLR,0.00,VWS V14.01,2013-09-09 09:49:00,
2013-09-09 05:54:00,43.0,42.5,30.22,West,259,0.0,0.0,98,0.00,,CLR,0.00,VWS V14.01,2013-09-09 09:54:00,
2013-09-09 05:59:00,43.2,42.7,30.22,West,259,0.0,0.0,98,0.00,,CLR,0.00,VWS V14.01,2013-09-09 09:59:00,
2013-09-09 06:00:00,43.3,42.8,30.22,West,259,0.0,0.0,98,0.00,,OVC,0.00,VWS V14.01,2013-09-09 10:00:00,
2013-09-09 06:05:00,43.4,42.9,30.22,West,259,0.0,0.0,98,0.00,,CLR,0.00,VWS V14.01,2013-09-09 10:05:00,
2013-09-09 06:10:00,43.5,43.0,30.22,WNW,300,0.0,0.0,98,0.00,,CLR,0.00,VWS V14.01,2013-09-09 10:10:00,
2013-09-09 06:15:00,43.5,43.0,30.22,WNW,301,0.0,0.0,98,0.00,,CLR,0.00,VWS V14.01,2013-09-09 10:15:00,
2013-09-09 06:20:00,43.5,43.0,30.22,WNW,299,0.0,0.0,98,0.00,,CLR,0.00,VWS V14.01,2013-09-09 10:20:00,
2013-09-09 06:25:00,43.5,43.0,30.22,WNW,299,0.0,0.0,98,0.00,,CLR,0.00,VWS V14.01,2013-09-09 10:25:00,
2013-09-09 06:30:00,43.5,43.0,30.22,WNW,299,0.0,0.0,98,0.00,,CLR,0.00,VWS V14.01,2013-09-09 10:30:00,
2013-09-09 06:35:00,43.6,43.1,30.22,WNW,299,0.0,0.0,98,0.00,,CLR,0.00,VWS V14.01,2013-09-09 10:35:00,
2013-09-09 06:40:00,43.5,43.0,30.22,WNW,299,0.0,0.0,98,0.00,,CLR,0.00,VWS V14.01,2013-09-09 10:40:00,
2013-09-09 06:45:00,43.4,42.9,30.22,WNW,299,0.0,0.0,98,0.00,,CLR,0.00,VWS V14.01,2013-09-09 10:45:00,
2013-09-09 06:50:00,43.5,43.0,30.22,WNW,299,0.0,0.0,98,0.00,,CLR,0.00,VWS V14.01,2013-09-09 10:50:00,
2013-09-09 06:56:00,43.7,43.2,30.22,WNW,299,0.0,0.0,98,0.00,,CLR,0.00,VWS V14.01,2013-09-09 10:56:00,
2013-09-09 07:00:00,43.8,43.3,30.22,WNW,299,0.0,0.0,98,0.00,,OVC,0.00,VWS V14.01,2013-09-09 11:00:00,
2013-09-09 07:01:00,43.7,43.2,30.22,WNW,300,0.0,0.0,98,0.00,,CLR,0.00,VWS V14.01,2013-09-09 11:01:00,
2013-09-09 07:06:00,43.8,43.3,30.21,WNW,300,0.0,0.0,98,0.00,,CLR,0.00,VWS V14.01,2013-09-09 11:06:00,
2013-09-09 07:11:00,44.0,43.5,30.21,WNW,299,0.0,0.0,98,0.00,,CLR,0.00,VWS V14.01,2013-09-09 11:11:00,
2013-09-09 07:16:00,44.3,43.8,30.21,WNW,299,0.0,0.0,98,0.00,,CLR,0.00,VWS V14.01,2013-09-09 11:16:00,
2013-09-09 07:21:00,44.5,44.0,30.22,WNW,300,0.0,0.0,98,0.00,,CLR,0.00,VWS V14.01,2013-09-09 11:21:00,
2013-09-09 07:26:00,44.9,44.4,30.22,WNW,300,0.0,0.0,98,0.00,,CLR,0.00,VWS V14.01,2013-09-09 11:26:00,
2013-09-09 07:30:00,45.3,44.8,30.22,WNW,299,0.0,0.0,98,0.00,,OVC,0.00,VWS V14.01,2013-09-09 11:30:00,
2013-09-09 07:31:00,45.2,44.7,30.22,WNW,300,0.0,0.0,98,0.00,,CLR,0.00,VWS V14.01,2013-09-09 11:31:00,
2013-09-09 07:36:00,45.6,45.1,30.22,WNW,299,0.0,0.0,98,0.00,,CLR,0.00,VWS V14.01,2013-09-09 11:36:00,
2013-09-09 07:42:00,45.9,45.4,30.22,SW,215,0.0,0.0,98,0.00,,CLR,0.00,VWS V14.01,2013-09-09 11:42:00,
2013-09-09 07:47:00,45.5,44.7,30.22,SW,236,0.0,0.0,97,0.00,,CLR,0.00,VWS V14.01,2013-09-09 11:47:00,
2013-09-09 07:52:00,45.6,44.8,30.22,SW,236,0.0,0.0,97,0.00,,CLR,0.00,VWS V14.01,2013-09-09 11:52:00,
2013-09-09 07:57:00,45.8,45.0,30.22,SW,236,0.0,0.0,97,0.00,,CLR,0.00,VWS V14.01,2013-09-09 11:57:00,
2013-09-09 08:00:00,46.2,45.4,30.22,SW,235,0.0,0.0,97,0.00,,OVC,0.00,VWS V14.01,2013-09-09 12:00:00,
2013-09-09 08:02:00,46.1,45.3,30.22,SW,235,0.0,0.0,97,0.00,,CLR,0.00,VWS V14.01,2013-09-09 12:02:00,
2013-09-09 08:07:00,46.4,45.6,30.22,SW,235,0.0,0.0,97,0.00,,CLR,0.00,VWS V14.01,2013-09-09 12:07:00,
2013-09-09 08:12:00,46.7,45.9,30.22,SW,235,0.0,0.0,97,0.00,,CLR,0.00,VWS V14.01,2013-09-09 12:12:00,
2013-09-09 08:17:00,47.1,46.3,30.21,SW,232,0.0,0.0,97,0.00,,CLR,0.00,VWS V14.01,2013-09-09 12:17:00,
2013-09-09 08:22:00,47.5,46.7,30.21,SE,139,0.0,0.0,97,0.00,,CLR,0.00,VWS V14.01,2013-09-09 12:22:00,
2013-09-09 08:28:00,47.9,46.8,30.21,SE,139,0.0,0.0,96,0.00,,CLR,0.00,VWS V14.01,2013-09-09 12:28:00,
2013-09-09 08:30:00,48.5,47.1,30.21,SE,140,0.0,0.0,95,0.00,,OVC,0.00,VWS V14.01,2013-09-09 12:30:00,
2013-09-09 08:33:00,48.5,47.1,30.21,SE,140,0.0,0.0,95,0.00,,CLR,0.00,VWS V14.01,2013-09-09 12:33:00,
2013-09-09 08:38:00,49.5,47.3,30.21,SE,125,0.0,0.0,92,0.00,,CLR,0.00,VWS V14.01,2013-09-09 12:38:00,
2013-09-09 08:43:00,50.5,48.0,30.21,SSE,150,0.0,0.0,91,0.00,,CLR,0.00,VWS V14.01,2013-09-09 12:43:00,
2013-09-09 08:48:00,51.4,48.0,30.21,SSE,166,1.0,2.0,88,0.00,,CLR,0.00,VWS V14.01,2013-09-09 12:48:00,
2013-09-09 08:53:00,52.1,48.0,30.21,SE,142,1.0,2.0,86,0.00,,CLR,0.00,VWS V14.01,2013-09-09 12:53:00,
2013-09-09 08:58:00,52.9,47.9,30.21,South,177,2.0,3.0,83,0.00,,CLR,0.00,VWS V14.01,2013-09-09 12:58:00,
2013-09-09 09:00:00,53.4,48.0,30.21,South,187,2.0,4.0,82,0.00,,OVC,0.00,VWS V14.01,2013-09-09 13:00:00,
2013-09-09 09:03:00,53.5,47.8,30.21,SSE,154,2.0,4.0,81,0.00,,CLR,0.00,VWS V14.01,2013-09-09 13:03:00,
2013-09-09 09:08:00,53.9,48.2,30.20,SSE,158,1.0,5.0,81,0.00,,CLR,0.00,VWS V14.01,2013-09-09 13:08:00,
2013-09-09 09:13:00,54.5,48.1,30.20,SE,144,1.0,5.0,79,0.00,,CLR,0.00,VWS V14.01,2013-09-09 13:13:00,
2013-09-09 09:19:00,55.2,49.2,30.20,SW,236,1.0,5.0,80,0.00,,CLR,0.00,VWS V14.01,2013-09-09 13:19:00,
2013-09-09 09:24:00,55.6,48.9,30.20,SE,142,6.0,6.0,78,0.00,,CLR,0.00,VWS V14.01,2013-09-09 13:24:00,
2013-09-09 09:29:00,55.8,48.7,30.20,South,191,1.0,6.0,77,0.00,,CLR,0.00,VWS V14.01,2013-09-09 13:29:00,
2013-09-09 09:30:00,56.0,48.2,30.20,SSW,210,1.0,6.0,75,0.00,,OVC,0.00,VWS V14.01,2013-09-09 13:30:00,
2013-09-09 09:34:00,56.1,48.7,30.20,SSW,212,2.0,3.0,76,0.00,,CLR,0.00,VWS V14.01,2013-09-09 13:34:00,
2013-09-09 09:39:00,56.5,48.3,30.20,SSW,205,2.0,4.0,74,0.00,,CLR,0.00,VWS V14.01,2013-09-09 13:39:00,
2013-09-09 09:44:00,56.8,47.9,30.20,SW,218,1.0,4.0,72,0.00,,CLR,0.00,VWS V14.01,2013-09-09 13:44:00,
2013-09-09 09:49:00,57.3,48.7,30.20,SSW,208,3.0,4.0,73,0.00,,CLR,0.00,VWS V14.01,2013-09-09 13:49:00,
2013-09-09 09:54:00,57.6,48.3,30.19,SSW,212,4.0,5.0,71,0.00,,CLR,0.00,VWS V14.01,2013-09-09 13:54:00,
2013-09-09 09:59:00,57.9,47.0,30.19,SW,225,3.0,7.0,67,0.00,,CLR,0.00,VWS V14.01,2013-09-09 13:59:00,
2013-09-09 10:00:00,58.1,46.8,30.19,SW,222,3.0,7.0,66,0.00,,OVC,0.00,VWS V14.01,2013-09-09 14:00:00,
2013-09-09 10:04:00,58.2,47.3,30.20,SSW,208,1.0,3.0,67,0.00,,CLR,0.00,VWS V14.01,2013-09-09 14:04:00,
2013-09-09 10:10:00,58.8,47.5,30.20,SW,235,3.0,5.0,66,0.00,,CLR,0.00,VWS V14.01,2013-09-09 14:10:00,
2013-09-09 10:15:00,59.1,47.0,30.20,WSW,239,4.0,6.0,64,0.00,,CLR,0.00,VWS V14.01,2013-09-09 14:15:00,
2013-09-09 10:20:00,59.7,47.9,30.20,SSW,211,3.0,6.0,65,0.00,,CLR,0.00,VWS V14.01,2013-09-09 14:20:00,
2013-09-09 10:25:00,60.7,47.2,30.20,SSE,158,3.0,6.0,61,0.00,,CLR,0.00,VWS V14.01,2013-09-09 14:25:00,
2013-09-09 10:30:00,61.3,47.3,30.19,SW,222,3.0,6.0,60,0.00,,CLR,0.00,VWS V14.01,2013-09-09 14:30:00,
2013-09-09 10:35:00,61.6,48.0,30.19,WSW,242,2.0,4.0,61,0.00,,CLR,0.00,VWS V14.01,2013-09-09 14:35:00,
2013-09-09 10:40:00,62.2,48.2,30.19,SSW,197,1.0,4.0,60,0.00,,CLR,0.00,VWS V14.01,2013-09-09 14:40:00,
2013-09-09 10:45:00,62.5,48.0,30.19,SSW,205,2.0,5.0,59,0.00,,CLR,0.00,VWS V14.01,2013-09-09 14:45:00,
2013-09-09 10:51:00,62.6,47.2,30.18,SE,145,2.0,5.0,57,0.00,,CLR,0.00,VWS V14.01,2013-09-09 14:51:00,
2013-09-09 10:57:00,62.8,46.9,30.18,SW,219,2.0,5.0,56,0.00,,CLR,0.00,VWS V14.01,2013-09-09 14:57:00,
2013-09-09 11:00:00,63.1,47.2,30.18,SSW,203,4.0,5.0,56,0.00,,OVC,0.00,VWS V14.01,2013-09-09 15:00:00,
2013-09-09 11:03:00,63.1,47.2,30.18,SW,219,4.0,5.0,56,0.00,,CLR,0.00,VWS V14.01,2013-09-09 15:03:00,
2013-09-09 11:08:00,63.5,47.5,30.18,SW,224,3.0,4.0,56,0.00,,CLR,0.00,VWS V14.01,2013-09-09 15:08:00,
2013-09-09 11:13:00,63.7,46.8,30.18,SW,224,2.0,5.0,54,0.00,,CLR,0.00,VWS V14.01,2013-09-09 15:13:00,
2013-09-09 11:18:00,64.2,47.7,30.17,SSW,201,5.0,5.0,55,0.00,,CLR,0.00,VWS V14.01,2013-09-09 15:18:00,
2013-09-09 11:23:00,64.7,47.2,30.17,SSE,162,2.0,5.0,53,0.00,,CLR,0.00,VWS V14.01,2013-09-09 15:23:00,
2013-09-09 11:28:00,65.2,48.6,30.17,SSW,212,3.0,6.0,55,0.00,,CLR,0.00,VWS V14.01,2013-09-09 15:28:00,
2013-09-09 11:30:00,65.6,49.0,30.17,SW,222,4.0,6.0,55,0.00,,OVC,0.00,VWS V14.01,2013-09-09 15:30:00,
2013-09-09 11:33:00,65.6,49.0,30.17,SSW,200,3.0,5.0,55,0.00,,CLR,0.00,VWS V14.01,2013-09-09 15:33:00,
2013-09-09 11:38:00,65.8,49.7,30.16,SW,226,8.0,8.0,56,0.00,,CLR,0.00,VWS V14.01,2013-09-09 15:38:00,
2013-09-09 11:44:00,65.9,49.8,30.16,SW,218,4.0,8.0,56,0.00,,CLR,0.00,VWS V14.01,2013-09-09 15:44:00,
2013-09-09 11:49:00,66.2,49.1,30.16,South,186,2.0,8.0,54,0.00,,CLR,0.00,VWS V14.01,2013-09-09 15:49:00,
2013-09-09 11:54:00,66.6,50.4,30.15,SSW,212,4.0,8.0,56,0.00,,CLR,0.00,VWS V14.01,2013-09-09 15:54:00,
2013-09-09 11:59:00,66.9,50.7,30.15,South,181,3.0,8.0,56,0.00,,CLR,0.00,VWS V14.01,2013-09-09 15:59:00,
2013-09-09 12:00:00,67.3,51.1,30.15,SSW,197,4.0,8.0,56,0.00,,OVC,0.00,VWS V14.01,2013-09-09 16:00:00,
2013-09-09 12:04:00,67.5,50.8,30.15,South,181,3.0,4.0,55,0.00,,CLR,0.00,VWS V14.01,2013-09-09 16:04:00,
2013-09-09 12:09:00,67.8,52.0,30.15,SW,219,2.0,6.0,57,0.00,,CLR,0.00,VWS V14.01,2013-09-09 16:09:00,
2013-09-09 12:14:00,67.9,51.6,30.15,SSW,210,3.0,6.0,56,0.00,,CLR,0.00,VWS V14.01,2013-09-09 16:14:00,
2013-09-09 12:19:00,68.2,51.9,30.14,SW,224,2.0,6.0,56,0.00,,CLR,0.00,VWS V14.01,2013-09-09 16:19:00,
2013-09-09 12:24:00,67.8,52.0,30.15,SW,224,3.0,6.0,57,0.00,,CLR,0.00,VWS V14.01,2013-09-09 16:24:00,
2013-09-09 12:29:00,68.1,53.2,30.15,SW,224,4.0,6.0,59,0.00,,CLR,0.00,VWS V14.01,2013-09-09 16:29:00,
2013-09-09 12:30:00,68.2,53.8,30.15,SSE,165,3.0,6.0,60,0.00,,OVC,0.00,VWS V14.01,2013-09-09 16:30:00,
2013-09-09 12:35:00,68.4,53.1,30.15,South,169,2.0,3.0,58,0.00,,CLR,0.00,VWS V14.01,2013-09-09 16:35:00,
2013-09-09 12:40:00,69.0,53.6,30.14,SW,229,3.0,4.0,58,0.00,,CLR,0.00,VWS V14.01,2013-09-09 16:40:00,
2013-09-09 12:45:00,69.5,54.1,30.14,SSE,159,2.0,4.0,58,0.00,,CLR,0.00,VWS V14.01,2013-09-09 16:45:00,
2013-09-09 12:50:00,69.8,52.9,30.14,SE,134,1.0,4.0,55,0.00,,CLR,0.00,VWS V14.01,2013-09-09 16:50:00,
2013-09-09 12:55:00,70.1,54.2,30.14,South,179,2.0,4.0,57,0.00,,CLR,0.00,VWS V14.01,2013-09-09 16:55:00,
2013-09-09 13:00:00,70.3,55.3,30.13,SW,225,2.0,4.0,59,0.00,,CLR,0.00,VWS V14.01,2013-09-09 17:00:00,
2013-09-09 13:05:00,70.6,54.6,30.14,South,174,2.0,4.0,57,0.00,,CLR,0.00,VWS V14.01,2013-09-09 17:05:00,
2013-09-09 13:10:00,70.6,56.1,30.14,SW,218,3.0,4.0,60,0.00,,CLR,0.00,VWS V14.01,2013-09-09 17:10:00,
2013-09-09 13:15:00,70.5,54.1,30.13,SSW,212,1.0,4.0,56,0.00,,CLR,0.00,VWS V14.01,2013-09-09 17:15:00,
2013-09-09 13:20:00,70.7,54.7,30.13,ESE,107,1.0,6.0,57,0.00,,CLR,0.00,VWS V14.01,2013-09-09 17:20:00,
2013-09-09 13:26:00,70.7,54.7,30.13,South,180,1.0,6.0,57,0.00,,CLR,0.00,VWS V14.01,2013-09-09 17:26:00,
2013-09-09 13:30:00,70.9,56.3,30.14,SSE,153,1.0,6.0,60,0.00,,OVC,0.00,VWS V14.01,2013-09-09 17:30:00,
2013-09-09 13:31:00,70.7,55.7,30.13,SSE,151,1.0,6.0,59,0.00,,CLR,0.00,VWS V14.01,2013-09-09 17:31:00,
2013-09-09 13:36:00,71.2,55.7,30.14,South,188,2.0,3.0,58,0.00,,CLR,0.00,VWS V14.01,2013-09-09 17:36:00,
2013-09-09 13:41:00,71.4,56.3,30.13,South,176,2.0,3.0,59,0.00,,CLR,0.00,VWS V14.01,2013-09-09 17:41:00,
2013-09-09 13:46:00,71.6,56.5,30.14,SSW,198,1.0,5.0,59,0.00,,CLR,0.00,VWS V14.01,2013-09-09 17:46:00,
2013-09-09 13:51:00,71.7,55.7,30.13,SE,146,2.0,5.0,57,0.00,,CLR,0.00,VWS V14.01,2013-09-09 17:51:00,
2013-09-09 13:56:00,71.6,56.1,30.14,SSW,195,1.0,5.0,58,0.00,,CLR,0.00,VWS V14.01,2013-09-09 17:56:00,
2013-09-09 14:00:00,71.5,56.9,30.14,SW,231,2.0,5.0,60,0.00,,OVC,0.00,VWS V14.01,2013-09-09 18:00:00,
2013-09-09 14:01:00,71.6,56.5,30.14,SW,233,2.0,5.0,59,0.00,,CLR,0.00,VWS V14.01,2013-09-09 18:01:00,
2013-09-09 14:06:00,71.4,56.3,30.13,SSW,201,0.0,2.0,59,0.00,,CLR,0.00,VWS V14.01,2013-09-09 18:06:00,
2013-09-09 14:11:00,71.8,57.2,30.12,East,97,2.0,4.0,60,0.00,,CLR,0.00,VWS V14.01,2013-09-09 18:11:00,
2013-09-09 14:17:00,72.1,57.0,30.12,SE,125,3.0,4.0,59,0.00,,CLR,0.00,VWS V14.01,2013-09-09 18:17:00,
2013-09-09 14:22:00,72.1,56.5,30.12,SW,233,0.0,4.0,58,0.00,,CLR,0.00,VWS V14.01,2013-09-09 18:22:00,
2013-09-09 14:27:00,72.3,57.7,30.12,South,186,2.0,4.0,60,0.00,,CLR,0.00,VWS V14.01,2013-09-09 18:27:00,
2013-09-09 14:30:00,72.3,57.2,30.11,SSE,158,1.0,4.0,59,0.00,,OVC,0.00,VWS V14.01,2013-09-09 18:30:00,
2013-09-09 14:32:00,72.3,58.1,30.11,South,172,2.0,4.0,61,0.00,,CLR,0.00,VWS V14.01,2013-09-09 18:32:00,
2013-09-09 14:37:00,72.3,57.7,30.11,SSW,197,4.0,5.0,60,0.00,,CLR,0.00,VWS V14.01,2013-09-09 18:37:00,
2013-09-09 14:42:00,72.6,57.0,30.10,SSW,198,4.0,5.0,58,0.00,,CLR,0.00,VWS V14.01,2013-09-09 18:42:00,
2013-09-09 14:47:00,72.8,57.7,30.10,SSW,196,3.0,6.0,59,0.00,,CLR,0.00,VWS V14.01,2013-09-09 18:47:00,
2013-09-09 14:52:00,72.8,57.2,30.10,SW,233,3.0,6.0,58,0.00,,CLR,0.00,VWS V14.01,2013-09-09 18:52:00,
2013-09-09 14:57:00,72.8,57.7,30.10,SSE,160,1.0,6.0,59,0.00,,CLR,0.00,VWS V14.01,2013-09-09 18:57:00,
2013-09-09 15:00:00,73.2,58.0,30.09,SSW,211,2.0,6.0,59,0.00,,OVC,0.00,VWS V14.01,2013-09-09 19:00:00,
2013-09-09 15:02:00,73.2,58.0,30.09,SW,215,2.0,6.0,59,0.00,,CLR,0.00,VWS V14.01,2013-09-09 19:02:00,
2013-09-09 15:07:00,73.4,58.7,30.09,SSW,200,1.0,5.0,60,0.00,,CLR,0.00,VWS V14.01,2013-09-09 19:07:00,
2013-09-09 15:12:00,73.4,57.7,30.09,SSW,200,2.0,5.0,58,0.00,,CLR,0.00,VWS V14.01,2013-09-09 19:12:00,
2013-09-09 15:18:00,73.3,58.1,30.09,East,101,2.0,5.0,59,0.00,,CLR,0.00,VWS V14.01,2013-09-09 19:18:00,
2013-09-09 15:23:00,73.3,58.6,30.09,SSW,212,2.0,5.0,60,0.00,,CLR,0.00,VWS V14.01,2013-09-09 19:23:00,
2013-09-09 15:28:00,73.6,58.4,30.09,SSW,208,2.0,5.0,59,0.00,,CLR,0.00,VWS V14.01,2013-09-09 19:28:00,
2013-09-09 15:30:00,73.9,59.6,30.08,SW,219,1.0,5.0,61,0.00,,OVC,0.00,VWS V14.01,2013-09-09 19:30:00,
2013-09-09 15:33:00,73.9,59.6,30.08,SW,219,1.0,5.0,61,0.00,,CLR,0.00,VWS V14.01,2013-09-09 19:33:00,
2013-09-09 15:38:00,74.1,59.3,30.08,SSW,200,2.0,3.0,60,0.00,,CLR,0.00,VWS V14.01,2013-09-09 19:38:00,
2013-09-09 15:43:00,74.4,59.2,30.08,SW,235,0.0,4.0,59,0.00,,CLR,0.00,VWS V14.01,2013-09-09 19:43:00,
2013-09-09 15:48:00,74.6,58.4,30.08,SSW,203,2.0,4.0,57,0.00,,CLR,0.00,VWS V14.01,2013-09-09 19:48:00,
2013-09-09 15:53:00,74.3,58.6,30.07,South,187,1.0,4.0,58,0.00,,CLR,0.00,VWS V14.01,2013-09-09 19:53:00,
2013-09-09 15:58:00,74.3,59.1,30.07,WSW,255,0.0,4.0,59,0.00,,CLR,0.00,VWS V14.01,2013-09-09 19:58:00,
2013-09-09 16:00:00,74.4,60.5,30.07,WSW,248,1.0,4.0,62,0.00,,OVC,0.00,VWS V14.01,2013-09-09 20:00:00,
2013-09-09 16:03:00,74.5,60.2,30.07,SW,231,3.0,3.0,61,0.00,,CLR,0.00,VWS V14.01,2013-09-09 20:03:00,
2013-09-09 16:08:00,74.6,59.3,30.07,West,266,0.0,4.0,59,0.00,,CLR,0.00,VWS V14.01,2013-09-09 20:08:00,
2013-09-09 16:14:00,75.2,60.4,30.07,SW,226,2.0,4.0,60,0.00,,CLR,0.00,VWS V14.01,2013-09-09 20:14:00,
2013-09-09 16:19:00,75.2,60.8,30.06,WSW,245,3.0,4.0,61,0.00,,CLR,0.00,VWS V14.01,2013-09-09 20:19:00,
2013-09-09 16:24:00,75.3,60.5,30.06,WSW,257,1.0,4.0,60,0.00,,CLR,0.00,VWS V14.01,2013-09-09 20:24:00,
2013-09-09 16:29:00,75.2,60.8,30.06,West,264,2.0,4.0,61,0.00,,CLR,0.00,VWS V14.01,2013-09-09 20:29:00,
2013-09-09 16:30:00,75.1,59.8,30.06,SW,226,3.0,4.0,59,0.00,,OVC,0.00,VWS V14.01,2013-09-09 20:30:00,
2013-09-09 16:34:00,75.1,59.3,30.06,SSE,163,1.0,3.0,58,0.00,,CLR,0.00,VWS V14.01,2013-09-09 20:34:00,
2013-09-09 16:39:00,74.8,59.5,30.06,SSE,156,2.0,5.0,59,0.00,,CLR,0.00,VWS V14.01,2013-09-09 20:39:00,
2013-09-09 16:44:00,74.5,59.2,30.06,SSW,200,2.0,5.0,59,0.00,,CLR,0.00,VWS V14.01,2013-09-09 20:44:00,
2013-09-09 16:49:00,74.2,59.0,30.06,SSW,195,1.0,5.0,59,0.00,,CLR,0.00,VWS V14.01,2013-09-09 20:49:00,
2013-09-09 16:54:00,74.0,58.8,30.06,South,191,2.0,5.0,59,0.00,,CLR,0.00,VWS V14.01,2013-09-09 20:54:00,
2013-09-09 16:59:00,73.7,59.0,30.06,SSW,200,2.0,5.0,60,0.00,,CLR,0.00,VWS V14.01,2013-09-09 20:59:00,
2013-09-09 17:00:00,73.5,59.2,30.06,SSW,198,1.0,5.0,61,0.00,,OVC,0.00,VWS V14.01,2013-09-09 21:00:00,
2013-09-09 17:05:00,73.4,59.2,30.06,SW,225,2.0,2.0,61,0.00,,CLR,0.00,VWS V14.01,2013-09-09 21:05:00,
2013-09-09 17:10:00,73.2,59.4,30.07,SSW,203,1.0,2.0,62,0.00,,CLR,0.00,VWS V14.01,2013-09-09 21:10:00,
2013-09-09 17:15:00,73.1,59.3,30.06,SSW,193,1.0,3.0,62,0.00,,CLR,0.00,VWS V14.01,2013-09-09 21:15:00,
2013-09-09 17:20:00,72.9,59.6,30.06,South,180,1.0,3.0,63,0.00,,CLR,0.00,VWS V14.01,2013-09-09 21:20:00,
2013-09-09 17:25:00,72.7,59.4,30.06,South,169,1.0,3.0,63,0.00,,CLR,0.00,VWS V14.01,2013-09-09 21:25:00,
2013-09-09 17:30:00,72.6,59.3,30.06,SW,231,2.0,4.0,63,0.00,,CLR,0.00,VWS V14.01,2013-09-09 21:30:00,
2013-09-09 17:35:00,72.4,59.1,30.06,SSW,208,1.0,2.0,63,0.00,,CLR,0.00,VWS V14.01,2013-09-09 21:35:00,
2013-09-09 17:40:00,72.3,59.9,30.06,SE,128,0.0,2.0,65,0.00,,CLR,0.00,VWS V14.01,2013-09-09 21:40:00,
2013-09-09 17:45:00,72.2,59.4,30.05,SSW,196,0.0,2.0,64,0.00,,CLR,0.00,VWS V14.01,2013-09-09 21:45:00,
2013-09-09 17:50:00,72.2,59.4,30.05,SSW,207,0.0,2.0,64,0.00,,CLR,0.00,VWS V14.01,2013-09-09 21:50:00,
2013-09-09 17:56:00,72.0,59.6,30.05,SW,233,1.0,2.0,65,0.00,,CLR,0.00,VWS V14.01,2013-09-09 21:56:00,
2013-09-09 18:00:00,71.7,59.3,30.05,SSW,211,1.0,3.0,65,0.00,,OVC,0.00,VWS V14.01,2013-09-09 22:00:00,
2013-09-09 18:01:00,71.7,59.3,30.05,South,180,0.0,3.0,65,0.00,,CLR,0.00,VWS V14.01,2013-09-09 22:01:00,
2013-09-09 18:06:00,71.6,59.2,30.05,SSW,201,1.0,3.0,65,0.00,,CLR,0.00,VWS V14.01,2013-09-09 22:06:00,
2013-09-09 18:11:00,71.4,59.0,30.05,SSW,210,0.0,3.0,65,0.00,,CLR,0.00,VWS V14.01,2013-09-09 22:11:00,
2013-09-09 18:16:00,71.2,59.3,30.05,SSW,207,1.0,5.0,66,0.00,,CLR,0.00,VWS V14.01,2013-09-09 22:16:00,
2013-09-09 18:21:00,71.1,58.8,30.05,SE,139,1.0,5.0,65,0.00,,CLR,0.00,VWS V14.01,2013-09-09 22:21:00,
2013-09-09 18:26:00,70.9,59.0,30.05,SE,131,1.0,5.0,66,0.00,,CLR,0.00,VWS V14.01,2013-09-09 22:26:00,
2013-09-09 18:30:00,70.7,58.8,30.05,SW,216,1.0,5.0,66,0.00,,OVC,0.00,VWS V14.01,2013-09-09 22:30:00,
2013-09-09 18:31:00,70.8,58.9,30.05,SSE,155,1.0,5.0,66,0.00,,CLR,0.00,VWS V14.01,2013-09-09 22:31:00,
2013-09-09 18:36:00,70.7,58.8,30.05,SSE,166,3.0,4.0,66,0.00,,CLR,0.00,VWS V14.01,2013-09-09 22:36:00,
2013-09-09 18:41:00,70.6,58.7,30.05,SW,222,2.0,4.0,66,0.00,,CLR,0.00,VWS V14.01,2013-09-09 22:41:00,
2013-09-09 18:47:00,70.5,58.6,30.05,SSW,212,1.0,4.0,66,0.00,,CLR,0.00,VWS V14.01,2013-09-09 22:47:00,
2013-09-09 18:52:00,70.3,59.2,30.05,WSW,242,1.0,4.0,68,0.00,,CLR,0.00,VWS V14.01,2013-09-09 22:52:00,
2013-09-09 18:57:00,70.1,59.1,30.05,SW,233,0.0,4.0,68,0.00,,CLR,0.00,VWS V14.01,2013-09-09 22:57:00,
2013-09-09 19:00:00,70.0,59.8,30.05,SW,233,0.0,4.0,70,0.00,,OVC,0.00,VWS V14.01,2013-09-09 23:00:00,
2013-09-09 19:02:00,70.1,59.9,30.05,SW,234,0.0,4.0,70,0.00,,CLR,0.00,VWS V14.01,2013-09-09 23:02:00,
2013-09-09 19:07:00,69.7,60.3,30.05,SW,233,0.0,1.0,72,0.00,,CLR,0.00,VWS V14.01,2013-09-09 23:07:00,
2013-09-09 19:12:00,69.2,60.6,30.05,SW,235,0.0,1.0,74,0.00,,CLR,0.00,VWS V14.01,2013-09-09 23:12:00,
2013-09-09 19:17:00,68.8,60.6,30.05,SW,234,0.0,1.0,75,0.00,,CLR,0.00,VWS V14.01,2013-09-09 23:17:00,
2013-09-09 19:22:00,68.5,60.3,30.05,SW,235,0.0,1.0,75,0.00,,CLR,0.00,VWS V14.01,2013-09-09 23:22:00,
2013-09-09 19:28:00,68.2,60.7,30.05,SW,233,0.0,1.0,77,0.00,,CLR,0.00,VWS V14.01,2013-09-09 23:28:00,
2013-09-09 19:30:00,67.9,60.4,30.05,SW,233,0.0,1.0,77,0.00,,OVC,0.00,VWS V14.01,2013-09-09 23:30:00,
2013-09-09 19:33:00,67.9,60.4,30.05,SW,235,0.0,1.0,77,0.00,,CLR,0.00,VWS V14.01,2013-09-09 23:33:00,
2013-09-09 19:38:00,67.5,60.4,30.05,SW,233,0.0,0.0,78,0.00,,CLR,0.00,VWS V14.01,2013-09-09 23:38:00,
2013-09-09 19:43:00,67.0,60.3,30.05,SW,235,0.0,0.0,79,0.00,,CLR,0.00,VWS V14.01,2013-09-09 23:43:00,
2013-09-09 19:48:00,66.5,60.2,30.05,SW,233,0.0,0.0,80,0.00,,BKN120,0.00,VWS V14.01,2013-09-09 23:48:00,
2013-09-09 19:53:00,66.9,60.2,30.05,SW,232,1.0,2.0,79,0.00,,BKN120,0.00,VWS V14.01,2013-09-09 23:53:00,
2013-09-09 19:58:00,67.3,60.2,30.05,SW,235,1.0,2.0,78,0.00,,BKN120,0.00,VWS V14.01,2013-09-09 23:58:00,
2013-09-09 20:00:00,67.3,59.8,30.05,SW,235,0.0,2.0,77,0.00,,OVC,0.00,VWS V14.01,2013-09-10 00:00:00,
2013-09-09 20:03:00,67.3,59.8,30.05,SW,235,0.0,0.0,77,0.00,,BKN120,0.00,VWS V14.01,2013-09-10 00:03:00,
2013-09-09 20:08:00,67.2,59.8,30.05,SW,235,0.0,1.0,77,0.00,,BKN120,0.00,VWS V14.01,2013-09-10 00:08:00,
2013-09-09 20:13:00,67.1,60.0,30.06,WSW,243,0.0,1.0,78,0.00,,BKN120,0.00,VWS V14.01,2013-09-10 00:13:00,
2013-09-09 20:19:00,67.1,60.0,30.06,WSW,245,1.0,2.0,78,0.00,,OVC120,0.00,VWS V14.01,2013-09-10 00:19:00,
2013-09-09 20:24:00,67.2,59.8,30.05,WSW,240,2.0,3.0,77,0.00,,OVC120,0.00,VWS V14.01,2013-09-10 00:24:00,
2013-09-09 20:29:00,67.3,59.5,30.05,SW,232,4.0,4.0,76,0.00,,OVC120,0.00,VWS V14.01,2013-09-10 00:29:00,
2013-09-09 20:30:00,67.4,59.6,30.05,West,274,2.0,4.0,76,0.00,,OVC,0.00,VWS V14.01,2013-09-10 00:30:00,
2013-09-09 20:34:00,67.5,59.3,30.05,WSW,242,4.0,4.0,75,0.00,,OVC120,0.00,VWS V14.01,2013-09-10 00:34:00,
2013-09-09 20:39:00,67.7,59.1,30.05,WSW,245,2.0,4.0,74,0.00,,OVC120,0.00,VWS V14.01,2013-09-10 00:39:00,
2013-09-09 20:44:00,67.8,59.2,30.05,WSW,245,3.0,4.0,74,0.00,,OVC120,0.00,VWS V14.01,2013-09-10 00:44:00,
2013-09-09 20:49:00,67.6,59.0,30.05,SW,233,2.0,4.0,74,0.00,,OVC120,0.00,VWS V14.01,2013-09-10 00:49:00,
2013-09-09 20:54:00,67.5,58.5,30.05,WSW,239,2.0,4.0,73,0.00,,OVC120,0.00,VWS V14.01,2013-09-10 00:54:00,
2013-09-09 20:59:00,67.3,58.7,30.05,WSW,240,2.0,4.0,74,0.00,,OVC120,0.00,VWS V14.01,2013-09-10 00:59:00,
2013-09-09 21:00:00,67.2,58.6,30.06,SW,232,2.0,4.0,74,0.00,,OVC,0.00,VWS V14.01,2013-09-10 01:00:00,
2013-09-09 21:05:00,67.2,58.6,30.05,WSW,239,2.0,2.0,74,0.00,,OVC120,0.00,VWS V14.01,2013-09-10 01:05:00,
2013-09-09 21:10:00,67.1,58.5,30.05,WSW,242,1.0,3.0,74,0.00,,OVC120,0.00,VWS V14.01,2013-09-10 01:10:00,
2013-09-09 21:15:00,67.0,58.5,30.05,WSW,241,2.0,3.0,74,0.00,,OVC120,0.00,VWS V14.01,2013-09-10 01:15:00,
2013-09-09 21:20:00,66.9,58.3,30.05,WSW,242,1.0,3.0,74,0.00,,OVC120,0.00,VWS V14.01,2013-09-10 01:20:00,
2013-09-09 21:25:00,66.8,58.6,30.05,SW,232,2.0,3.0,75,0.00,,OVC120,0.00,VWS V14.01,2013-09-10 01:25:00,
2013-09-09 21:30:00,66.3,58.5,30.04,SW,229,2.0,3.0,76,0.00,,OVC120,0.00,VWS V14.01,2013-09-10 01:30:00,
2013-09-09 21:35:00,66.0,58.2,30.04,SW,225,0.0,1.0,76,0.00,,OVC120,0.00,VWS V14.01,2013-09-10 01:35:00,
2013-09-09 21:40:00,65.8,58.0,30.05,SW,225,0.0,1.0,76,0.00,,OVC120,0.00,VWS V14.01,2013-09-10 01:40:00,
2013-09-09 21:45:00,65.4,58.4,30.05,SW,229,0.0,1.0,78,0.00,,FEW120,0.00,VWS V14.01,2013-09-10 01:45:00,
2013-09-09 21:50:00,64.7,58.4,30.05,SW,228,0.0,1.0,80,0.00,,FEW120,0.00,VWS V14.01,2013-09-10 01:50:00,
2013-09-09 21:56:00,64.1,58.2,30.05,SW,228,0.0,1.0,81,0.00,,FEW120,0.00,VWS V14.01,2013-09-10 01:56:00,
2013-09-09 22:00:00,63.6,58.0,30.05,SW,229,0.0,1.0,82,0.00,,OVC,0.00,VWS V14.01,2013-09-10 02:00:00,
2013-09-09 22:01:00,63.7,58.1,30.05,SW,230,0.0,1.0,82,0.00,,FEW120,0.00,VWS V14.01,2013-09-10 02:01:00,
2013-09-09 22:06:00,63.6,58.3,30.06,North,353,0.0,1.0,83,0.00,,FEW120,0.00,VWS V14.01,2013-09-10 02:06:00,
2013-09-09 22:11:00,63.8,58.5,30.06,WSW,247,1.0,2.0,83,0.00,,FEW120,0.00,VWS V14.01,2013-09-10 02:11:00,
2013-09-09 22:16:00,64.6,58.7,30.06,WSW,238,2.0,3.0,81,0.00,,FEW120,0.00,VWS V14.01,2013-09-10 02:16:00,
2013-09-09 22:21:00,65.5,58.8,30.06,WSW,238,5.0,5.0,79,0.00,,FEW120,0.00,VWS V14.01,2013-09-10 02:21:00,
2013-09-09 22:26:00,66.1,59.0,30.05,WSW,240,2.0,5.0,78,0.00,,FEW120,0.00,VWS V14.01,2013-09-10 02:26:00,
2013-09-09 22:30:00,66.4,59.3,30.05,SW,236,3.0,5.0,78,0.00,,OVC,0.00,VWS V14.01,2013-09-10 02:30:00,
2013-09-09 22:31:00,66.4,59.3,30.05,WSW,250,2.0,5.0,78,0.00,,FEW120,0.00,VWS V14.01,2013-09-10 02:31:00,
2013-09-09 22:36:00,66.4,59.3,30.04,WSW,245,3.0,5.0,78,0.00,,FEW120,0.00,VWS V14.01,2013-09-10 02:36:00,
2013-09-09 22:41:00,66.5,59.4,30.04,WSW,245,3.0,5.0,78,0.00,,FEW120,0.00,VWS V14.01,2013-09-10 02:41:00,
2013-09-09 22:47:00,66.6,59.5,30.04,WSW,254,1.0,5.0,78,0.00,,CLR,0.00,VWS V14.01,2013-09-10 02:47:00,
2013-09-09 22:52:00,66.6,59.9,30.04,WSW,243,3.0,6.0,79,0.00,,CLR,0.00,VWS V14.01,2013-09-10 02:52:00,
2013-09-09 22:57:00,66.7,60.0,30.04,WSW,245,3.0,6.0,79,0.00,,CLR,0.00,VWS V14.01,2013-09-10 02:57:00,
2013-09-09 23:00:00,66.7,60.3,30.04,WSW,253,2.0,6.0,80,0.00,,OVC,0.00,VWS V14.01,2013-09-10 03:00:00,
2013-09-09 23:02:00,66.7,60.3,30.04,WSW,245,3.0,6.0,80,0.00,,CLR,0.00,VWS V14.01,2013-09-10 03:02:00,
2013-09-09 23:07:00,66.7,60.3,30.04,WSW,246,4.0,5.0,80,0.00,,CLR,0.00,VWS V14.01,2013-09-10 03:07:00,
2013-09-09 23:12:00,66.7,60.3,30.04,WSW,245,4.0,6.0,80,0.00,,CLR,0.00,VWS V14.01,2013-09-10 03:12:00,
2013-09-09 23:17:00,66.7,60.3,30.04,WSW,250,2.0,6.0,80,0.00,,CLR,0.00,VWS V14.01,2013-09-10 03:17:00,
2013-09-09 23:22:00,66.6,60.6,30.04,WSW,243,4.0,6.0,81,0.00,,CLR,0.00,VWS V14.01,2013-09-10 03:22:00,
2013-09-09 23:27:00,66.7,60.7,30.04,WSW,243,2.0,7.0,81,0.00,,CLR,0.00,VWS V14.01,2013-09-10 03:27:00,
2013-09-09 23:30:00,66.7,61.0,30.04,WSW,246,4.0,7.0,82,0.00,,OVC,0.00,VWS V14.01,2013-09-10 03:30:00,
2013-09-09 23:33:00,66.7,61.0,30.04,WSW,248,3.0,7.0,82,0.00,,CLR,0.00,VWS V14.01,2013-09-10 03:33:00,
2013-09-09 23:38:00,66.7,61.0,30.03,West,261,3.0,6.0,82,0.00,,CLR,0.00,VWS V14.01,2013-09-10 03:38:00,
2013-09-09 23:43:00,66.7,61.0,30.03,SW,229,5.0,6.0,82,0.00,,CLR,0.00,VWS V14.01,2013-09-10 03:43:00,
2013-09-09 23:48:00,66.6,60.9,30.03,WSW,256,4.0,7.0,82,0.00,,CLR,0.00,VWS V14.01,2013-09-10 03:48:00,
2013-09-09 23:53:00,66.7,61.0,30.03,WSW,250,4.0,8.0,82,0.00,,CLR,0.00,VWS V14.01,2013-09-10 03:53:00,
2013-09-09 23:58:00,66.6,60.9,30.03,WSW,255,4.0,8.0,82,0.00,,CLR,0.00,VWS V14.01,2013-09-10 03:58:00,